Time;durP1;ratioP1;P1;durP2;ratioP2;P2;SDS_P1;SDS_P2;PMS_P1;PMS_P2;Temp;Humidity;BMP_temperature;BMP_pressure;BME280_temperature;BME280_humidity;BME280_pressure;Samples;Min_cycle;Max_cycle;Signal;HPM_P1;HPM_P2
2022/12/27 00:00:58;;;;;;;2.88;0.57;;;7.40;99.90;;;;;;5112764;28;20036;-73
2022/12/27 00:03:24;;;;;;;1.33;0.40;;;7.40;99.90;;;;;;5112727;28;20020;-72
2022/12/27 00:05:49;;;;;;;2.00;0.73;;;7.40;99.90;;;;;;5113417;28;20423;-73
2022/12/27 00:08:15;;;;;;;0.60;0.40;;;7.40;99.90;;;;;;5112651;28;20027;-72
2022/12/27 00:10:41;;;;;;;0.38;0.32;;;7.40;99.90;;;;;;5112141;28;20412;-72
2022/12/27 00:13:07;;;;;;;4.07;0.60;;;7.40;99.90;;;;;;5113784;28;20051;-72
2022/12/27 00:15:34;;;;;;;1.30;0.37;;;7.30;99.90;;;;;;5112078;28;20019;-73
2022/12/27 00:17:59;;;;;;;2.30;0.43;;;7.30;99.90;;;;;;5113540;27;20031;-73
2022/12/27 00:20:25;;;;;;;1.43;0.40;;;7.30;99.90;;;;;;5112474;28;20031;-72
2022/12/27 00:22:50;;;;;;;2.57;0.53;;;7.30;99.90;;;;;;5112813;28;20023;-73
2022/12/27 00:25:16;;;;;;;2.60;1.02;;;7.30;99.90;;;;;;5113610;28;20100;-73
2022/12/27 00:27:42;;;;;;;1.17;0.50;;;7.30;99.90;;;;;;5111894;28;20134;-73
2022/12/27 00:30:08;;;;;;;2.65;0.50;;;7.20;99.90;;;;;;5113479;28;20479;-72
2022/12/27 00:32:34;;;;;;;2.53;0.80;;;7.20;99.90;;;;;;5111447;28;20026;-73
2022/12/27 00:34:59;;;;;;;1.47;0.77;;;7.20;99.90;;;;;;5112325;28;20118;-72
2022/12/27 00:37:25;;;;;;;3.10;0.60;;;7.10;99.90;;;;;;5112282;28;20452;-72
2022/12/27 00:39:51;;;;;;;2.80;0.50;;;7.10;99.90;;;;;;5112892;28;20492;-72
2022/12/27 00:42:16;;;;;;;2.63;0.60;;;7.00;99.90;;;;;;5113333;28;20023;-72
2022/12/27 00:44:42;;;;;;;1.97;0.50;;;7.00;99.90;;;;;;5111561;28;20380;-73
2022/12/27 00:47:08;;;;;;;1.45;0.70;;;6.90;99.90;;;;;;5112331;28;20055;-72
2022/12/27 00:49:34;;;;;;;2.73;0.40;;;6.90;99.90;;;;;;5112847;28;20426;-73
2022/12/27 00:52:00;;;;;;;0.83;0.40;;;6.90;99.90;;;;;;5112074;28;20023;-73
2022/12/27 00:54:25;;;;;;;1.50;0.50;;;6.90;99.90;;;;;;5113277;28;20034;-73
2022/12/27 00:56:51;;;;;;;2.60;0.50;;;6.80;99.90;;;;;;5112730;28;20160;-73
2022/12/27 00:59:17;;;;;;;3.70;0.60;;;6.80;99.90;;;;;;5112010;28;20451;-73
2022/12/27 01:01:42;;;;;;;1.10;0.40;;;6.80;99.90;;;;;;5111422;28;20023;-73
2022/12/27 01:04:12;;;;;;;2.20;0.43;;;6.70;99.90;;;;;;5111858;28;20054;-73
2022/12/27 01:06:39;;;;;;;4.33;0.70;;;6.70;99.90;;;;;;5111343;28;20031;-73
2022/12/27 01:09:04;;;;;;;1.77;0.60;;;6.70;99.90;;;;;;5111962;28;20376;-73
2022/12/27 01:11:30;;;;;;;0.87;0.50;;;6.60;99.90;;;;;;5111831;28;20467;-73
2022/12/27 01:14:02;;;;;;;1.30;0.50;;;6.60;99.90;;;;;;5111384;28;20119;-72
2022/12/27 01:16:28;;;;;;;1.50;0.55;;;6.60;99.90;;;;;;5111784;28;20023;-72
2022/12/27 01:18:54;;;;;;;1.97;0.50;;;6.60;99.90;;;;;;5111085;28;20069;-73
2022/12/27 01:21:23;;;;;;;3.67;0.83;;;6.50;99.90;;;;;;5111723;28;20034;-73
2022/12/27 01:23:49;;;;;;;1.53;0.50;;;6.50;99.90;;;;;;5111144;28;20069;-73
2022/12/27 01:26:18;;;;;;;5.67;0.67;;;6.50;99.90;;;;;;5111587;28;20035;-73
2022/12/27 01:28:44;;;;;;;2.60;1.10;;;6.50;99.90;;;;;;5111151;28;20084;-72
2022/12/27 01:31:13;;;;;;;2.40;0.60;;;6.50;99.90;;;;;;5111630;28;20030;-73
2022/12/27 01:33:39;;;;;;;5.13;1.00;;;6.50;99.90;;;;;;5112356;28;20069;-73
2022/12/27 01:36:10;;;;;;;3.37;0.60;;;6.40;99.90;;;;;;5111674;28;20415;-73
2022/12/27 01:38:36;;;;;;;3.65;0.65;;;6.40;99.90;;;;;;5111122;28;20119;-73
2022/12/27 01:42:50;;;;;;;4.47;0.80;;;6.40;99.90;;;;;;5111589;28;20458;-73
2022/12/27 01:43:47;;;;;;;4.00;0.90;;;6.30;99.90;;;;;;5111938;28;20061;-73
2022/12/27 01:46:13;;;;;;;5.33;0.90;;;6.30;99.90;;;;;;5112618;28;20024;-73
2022/12/27 01:48:39;;;;;;;3.93;0.83;;;6.30;99.90;;;;;;5112524;28;20346;-73
2022/12/27 01:51:05;;;;;;;3.47;0.73;;;6.30;99.90;;;;;;5112948;28;20054;-72
2022/12/27 01:53:38;;;;;;;1.83;0.70;;;6.30;99.90;;;;;;5111469;28;20024;-72
2022/12/27 01:56:12;;;;;;;5.03;0.70;;;6.30;99.90;;;;;;5111082;28;20035;-72
2022/12/27 01:58:52;;;;;;;2.17;0.90;;;6.30;99.90;;;;;;5110943;28;20032;-72
2022/12/27 02:01:29;;;;;;;3.40;0.60;;;6.30;99.90;;;;;;5111460;28;20540;-73
2022/12/27 02:04:06;;;;;;;2.07;0.70;;;6.30;99.90;;;;;;5110832;28;20227;-72
2022/12/27 02:06:32;;;;;;;4.17;0.70;;;6.20;99.90;;;;;;5111251;28;20020;-73
2022/12/27 02:09:13;;;;;;;2.40;0.60;;;6.20;99.90;;;;;;5110815;28;20028;-73
2022/12/27 02:11:53;;;;;;;1.90;0.90;;;6.20;99.90;;;;;;5114527;28;20076;-73
2022/12/27 02:14:33;;;;;;;5.50;0.80;;;6.20;99.90;;;;;;5116167;28;20103;-72
2022/12/27 02:17:02;;;;;;;3.63;0.90;;;6.20;99.90;;;;;;5115610;28;20023;-73
2022/12/27 02:19:40;;;;;;;2.40;0.50;;;6.10;99.90;;;;;;5114331;28;20100;-73
2022/12/27 02:26:08;;;;;;;2.17;0.73;;;6.10;99.90;;;;;;5116030;28;20047;-73
2022/12/27 02:29:13;;;;;;;3.23;0.80;;;6.10;99.90;;;;;;5114619;28;20031;-73
2022/12/27 02:31:57;;;;;;;2.93;0.80;;;6.10;99.90;;;;;;5115457;28;20111;-73
2022/12/27 02:34:29;;;;;;;2.07;0.80;;;6.10;99.90;;;;;;5114454;28;20032;-72
2022/12/27 02:37:00;;;;;;;1.55;0.82;;;6.00;99.90;;;;;;5114029;28;20065;-73
2022/12/27 02:39:28;;;;;;;3.38;0.90;;;6.00;99.90;;;;;;5115814;28;20036;-72
2022/12/27 02:53:17;;;;;;;2.03;0.87;;;5.90;99.90;;;;;;5114777;28;20126;-73
2022/12/27 02:58:47;;;;;;;3.13;0.75;;;5.80;99.90;;;;;;5114703;28;20047;-73
2022/12/27 03:04:30;;;;;;;6.80;0.97;;;5.80;99.90;;;;;;5114977;28;20062;-72
2022/12/27 03:07:24;;;;;;;2.87;0.80;;;5.80;99.90;;;;;;5113322;28;20028;-72
2022/12/27 03:16:17;;;;;;;4.17;0.97;;;5.80;99.90;;;;;;5114281;28;20034;-72
2022/12/27 03:19:07;;;;;;;4.60;0.93;;;5.70;99.90;;;;;;5112773;28;20043;-73
2022/12/27 03:27:27;;;;;;;3.40;1.30;;;5.70;99.90;;;;;;5114906;28;20089;-72
2022/12/27 03:39:04;;;;;;;2.93;0.90;;;5.50;99.90;;;;;;5114071;28;20034;-73
2022/12/27 03:44:24;;;;;;;2.03;0.90;;;5.50;99.90;;;;;;5114452;28;20054;-72
2022/12/27 03:46:58;;;;;;;3.43;1.00;;;5.40;99.90;;;;;;5113766;28;20035;-72
2022/12/27 03:49:33;;;;;;;2.13;1.03;;;5.30;99.90;;;;;;5113211;28;20050;-72
2022/12/27 03:52:20;;;;;;;7.83;1.23;;;5.30;99.90;;;;;;5112521;28;20030;-72
2022/12/27 03:54:49;;;;;;;3.60;0.97;;;5.20;99.90;;;;;;5112141;28;20031;-73
2022/12/27 03:57:18;;;;;;;2.90;1.07;;;5.20;99.90;;;;;;5114347;28;20385;-72
2022/12/27 03:59:44;;;;;;;2.30;1.30;;;5.10;99.90;;;;;;5112242;28;20031;-73
2022/12/27 04:02:10;;;;;;;3.03;1.10;;;5.00;99.90;;;;;;5112681;28;20076;-72
2022/12/27 04:04:36;;;;;;;5.33;1.90;;;5.00;99.90;;;;;;5112763;28;20058;-72
2022/12/27 04:07:02;;;;;;;3.33;1.00;;;5.00;99.90;;;;;;5112157;28;20414;-72
2022/12/27 04:36:50;;;;;;;2.60;0.97;;;4.80;99.90;;;;;;5113076;28;20039;-73
2022/12/27 04:39:16;;;;;;;2.67;1.00;;;4.80;99.90;;;;;;5113112;28;20032;-72
2022/12/27 04:55:30;;;;;;;2.20;1.00;;;4.80;99.90;;;;;;5113348;28;20096;-72
2022/12/27 04:57:57;;;;;;;2.53;1.30;;;4.80;99.90;;;;;;5111443;28;20031;-72
2022/12/27 05:03:16;;;;;;;8.03;1.33;;;4.80;99.90;;;;;;5112969;28;20088;-73
2022/12/27 05:05:43;;;;;;;2.33;1.20;;;4.80;99.90;;;;;;5111916;28;20169;-72
2022/12/27 05:16:23;;;;;;;3.60;1.00;;;4.80;99.90;;;;;;5113202;28;20084;-73
2022/12/27 05:18:49;;;;;;;1.73;0.83;;;4.80;99.90;;;;;;5110982;28;20579;-73
2022/12/27 05:21:14;;;;;;;5.27;1.20;;;4.80;99.90;;;;;;5111345;28;20362;-72
2022/12/27 05:26:26;;;;;;;5.47;1.10;;;4.80;99.90;;;;;;5113697;28;20084;-72
2022/12/27 05:28:55;;;;;;;5.90;1.43;;;4.80;99.90;;;;;;5112459;28;20028;-73
2022/12/27 05:31:22;;;;;;;4.57;0.90;;;4.90;99.90;;;;;;5111636;28;20027;-72
2022/12/27 05:33:48;;;;;;;1.87;1.00;;;4.80;99.90;;;;;;5112366;28;20020;-77
2022/12/27 05:36:14;;;;;;;3.87;1.00;;;4.80;99.90;;;;;;5111687;28;20094;-73
2022/12/27 05:38:40;;;;;;;4.43;1.13;;;4.80;99.90;;;;;;5111604;28;20033;-72
2022/12/27 05:41:06;;;;;;;3.50;1.70;;;4.80;99.90;;;;;;5110887;28;20461;-73
2022/12/27 05:43:32;;;;;;;4.87;0.90;;;4.90;99.90;;;;;;5112817;28;20036;-72
2022/12/27 05:46:07;;;;;;;4.83;1.03;;;4.90;99.90;;;;;;5113726;28;20038;-73
2022/12/27 05:48:34;;;;;;;2.60;1.07;;;4.90;99.90;;;;;;5116689;28;20468;-72
2022/12/27 05:51:11;;;;;;;4.77;1.10;;;4.90;99.90;;;;;;5114851;28;20027;-72
2022/12/27 05:53:37;;;;;;;5.03;1.00;;;4.90;99.90;;;;;;5116683;28;20032;-72
2022/12/27 05:56:03;;;;;;;3.80;1.03;;;4.90;99.90;;;;;;5115894;28;20088;-73
2022/12/27 05:58:29;;;;;;;2.50;1.07;;;4.90;99.90;;;;;;5116460;28;20034;-72
2022/12/27 06:00:55;;;;;;;6.47;0.90;;;4.90;99.90;;;;;;5114632;28;20055;-73
2022/12/27 06:03:21;;;;;;;1.70;0.90;;;4.90;99.90;;;;;;5115111;28;20063;-72
2022/12/27 06:05:46;;;;;;;2.03;0.80;;;4.80;99.90;;;;;;5115053;28;20119;-73
2022/12/27 06:08:12;;;;;;;3.03;1.17;;;4.80;99.90;;;;;;5114475;28;20030;-73
2022/12/27 06:10:38;;;;;;;4.57;1.00;;;4.80;99.90;;;;;;5115022;28;20108;-72
2022/12/27 06:13:04;;;;;;;3.70;0.83;;;4.80;99.90;;;;;;5114162;28;20070;-73
2022/12/27 06:15:30;;;;;;;3.60;1.10;;;4.80;99.90;;;;;;5115036;28;20051;-72
2022/12/27 06:17:57;;;;;;;3.43;0.90;;;4.80;99.90;;;;;;5114121;28;20460;-73
2022/12/27 06:20:23;;;;;;;2.63;1.00;;;4.80;99.90;;;;;;5114832;28;20039;-72
2022/12/27 06:22:48;;;;;;;5.10;1.20;;;4.80;99.90;;;;;;5114804;28;20380;-73
2022/12/27 06:25:14;;;;;;;2.93;1.10;;;4.80;99.90;;;;;;5115249;28;20432;-73
2022/12/27 06:27:40;;;;;;;4.73;1.00;;;4.70;99.90;;;;;;5114786;28;20024;-72
2022/12/27 06:30:06;;;;;;;3.60;0.90;;;4.70;99.90;;;;;;5114114;28;20094;-73
2022/12/27 06:32:35;;;;;;;2.20;1.10;;;4.70;99.90;;;;;;5115846;28;20019;-72
2022/12/27 06:35:01;;;;;;;3.03;1.03;;;4.60;99.90;;;;;;5113974;28;20024;-72
2022/12/27 06:37:28;;;;;;;3.67;1.07;;;4.60;99.90;;;;;;5114356;28;20394;-73
2022/12/27 06:39:53;;;;;;;4.00;1.00;;;4.60;99.90;;;;;;5115313;28;20055;-73
2022/12/27 06:42:19;;;;;;;2.00;1.03;;;4.50;99.90;;;;;;5115976;28;20066;-73
2022/12/27 06:44:45;;;;;;;4.90;1.20;;;4.50;99.90;;;;;;5114335;28;20054;-72
2022/12/27 06:47:10;;;;;;;2.53;1.10;;;4.50;99.90;;;;;;5115113;28;20024;-73
2022/12/27 06:49:36;;;;;;;3.20;1.00;;;4.50;99.90;;;;;;5114335;28;20028;-72
2022/12/27 06:52:01;;;;;;;2.73;0.93;;;4.50;99.90;;;;;;5114991;28;20023;-73
2022/12/27 06:54:28;;;;;;;3.10;1.20;;;4.50;99.90;;;;;;5115442;28;20032;-73
2022/12/27 06:56:55;;;;;;;2.97;1.07;;;4.50;99.90;;;;;;5112571;28;20426;-73
2022/12/27 06:59:21;;;;;;;3.73;1.00;;;4.50;99.90;;;;;;5113878;28;20027;-73
2022/12/27 07:01:47;;;;;;;4.23;1.00;;;4.50;99.90;;;;;;5113983;28;20064;-73
2022/12/27 07:04:12;;;;;;;1.97;0.90;;;4.50;99.90;;;;;;5114759;28;20074;-72
2022/12/27 07:06:38;;;;;;;4.07;0.97;;;4.50;99.90;;;;;;5115183;28;20532;-73
2022/12/27 07:09:04;;;;;;;3.47;1.23;;;4.50;99.90;;;;;;5113239;28;20027;-72
2022/12/27 07:11:35;;;;;;;4.33;0.83;;;4.50;99.90;;;;;;5113870;28;20042;-72
2022/12/27 07:14:01;;;;;;;4.23;0.97;;;4.40;99.90;;;;;;5112967;28;20030;-73
2022/12/27 07:16:28;;;;;;;2.23;0.90;;;4.50;99.90;;;;;;5113999;28;20027;-72
2022/12/27 07:18:55;;;;;;;4.23;1.20;;;4.50;99.90;;;;;;5112765;28;20096;-74
2022/12/27 07:21:24;;;;;;;2.83;0.90;;;4.40;99.90;;;;;;5113522;28;20457;-73
2022/12/27 07:23:50;;;;;;;2.73;0.83;;;4.40;99.90;;;;;;5113603;28;20039;-73
2022/12/27 07:26:25;;;;;;;3.50;1.10;;;4.40;99.90;;;;;;5113075;28;20032;-72
2022/12/27 07:28:56;;;;;;;3.33;1.10;;;4.40;99.90;;;;;;5114737;28;20059;-72
2022/12/27 07:31:23;;;;;;;4.07;1.20;;;4.40;99.90;;;;;;5113458;28;20032;-73
2022/12/27 07:33:49;;;;;;;2.97;1.00;;;4.40;99.90;;;;;;5113322;28;20031;-72
2022/12/27 07:36:21;;;;;;;1.07;0.90;;;4.40;99.90;;;;;;5112593;28;20031;-72
2022/12/27 07:38:46;;;;;;;5.78;1.10;;;4.40;99.90;;;;;;5113470;28;20024;-72
2022/12/27 07:41:12;;;;;;;5.40;1.30;;;4.40;99.90;;;;;;5112639;28;20036;-72
2022/12/27 07:43:39;;;;;;;7.50;3.50;;;4.40;99.90;;;;;;5113134;28;20024;-73
2022/12/27 07:46:07;;;;;;;5.83;1.50;;;4.40;99.90;;;;;;5112685;28;20464;-73
2022/12/27 07:48:33;;;;;;;4.67;1.07;;;4.30;99.90;;;;;;5114340;28;20020;-73
2022/12/27 07:50:59;;;;;;;1.77;0.90;;;4.40;99.90;;;;;;5112296;28;20040;-73
2022/12/27 07:53:25;;;;;;;2.57;1.10;;;4.40;99.90;;;;;;5113247;28;20023;-73
2022/12/27 07:55:52;;;;;;;1.63;0.87;;;4.40;99.90;;;;;;5112817;28;20056;-72
2022/12/27 07:58:18;;;;;;;4.07;1.00;;;4.40;99.90;;;;;;5113778;28;20034;-73
2022/12/27 08:00:49;;;;;;;4.00;1.20;;;4.50;99.90;;;;;;5113714;28;20380;-73
2022/12/27 08:03:15;;;;;;;2.00;1.10;;;4.50;99.90;;;;;;5113612;28;20469;-73
2022/12/27 08:05:54;;;;;;;4.80;1.40;;;4.50;99.90;;;;;;5114260;28;20024;-72
2022/12/27 08:08:22;;;;;;;5.23;1.00;;;4.50;99.90;;;;;;5113219;28;20042;-73
2022/12/27 08:10:48;;;;;;;2.30;1.10;;;4.60;99.90;;;;;;5112653;28;20035;-73
2022/12/27 08:13:13;;;;;;;2.57;1.10;;;4.50;99.90;;;;;;5113132;28;20035;-72
2022/12/27 08:15:41;;;;;;;4.23;1.23;;;4.60;99.90;;;;;;5112659;28;20460;-73
2022/12/27 08:18:07;;;;;;;2.90;0.83;;;4.60;99.90;;;;;;5111791;28;20070;-73
2022/12/27 08:20:33;;;;;;;2.50;1.27;;;4.60;99.90;;;;;;5113459;28;20102;-72
2022/12/27 08:22:59;;;;;;;2.27;1.37;;;4.60;99.90;;;;;;5111985;28;20118;-74
2022/12/27 08:25:25;;;;;;;4.17;1.60;;;4.60;99.90;;;;;;5112203;28;20122;-72
2022/12/27 08:27:50;;;;;;;3.70;1.20;;;4.60;99.90;;;;;;5113638;27;20372;-72
2022/12/27 08:30:16;;;;;;;7.00;1.50;;;4.70;99.90;;;;;;5113131;28;20028;-72
2022/12/27 08:32:41;;;;;;;3.77;1.20;;;4.70;99.90;;;;;;5112336;28;20027;-72
2022/12/27 08:35:07;;;;;;;3.17;1.27;;;4.70;99.90;;;;;;5113009;28;20030;-73
2022/12/27 08:37:33;;;;;;;4.70;1.30;;;4.70;99.90;;;;;;5112460;28;20031;-72
2022/12/27 08:39:58;;;;;;;2.97;1.10;;;4.70;99.90;;;;;;5111975;28;20407;-77
2022/12/27 08:42:24;;;;;;;5.40;1.33;;;4.70;99.90;;;;;;5113690;28;20520;-72
2022/12/27 08:44:50;;;;;;;2.70;1.30;;;4.70;99.90;;;;;;5113692;28;20028;-72
2022/12/27 08:47:18;;;;;;;2.90;1.20;;;4.70;99.90;;;;;;5112912;28;20349;-73
2022/12/27 08:49:44;;;;;;;2.03;1.13;;;4.70;99.90;;;;;;5111820;28;20057;-74
2022/12/27 08:52:09;;;;;;;4.17;1.77;;;4.80;99.90;;;;;;5112817;28;20020;-73
2022/12/27 08:54:35;;;;;;;2.60;1.10;;;4.80;99.90;;;;;;5111906;28;20135;-73
2022/12/27 08:57:01;;;;;;;5.00;1.40;;;4.80;99.90;;;;;;5111505;28;20035;-72
2022/12/27 08:59:26;;;;;;;4.20;1.13;;;4.80;99.90;;;;;;5113131;28;20023;-73
2022/12/27 09:01:52;;;;;;;2.30;1.10;;;4.80;99.90;;;;;;5111957;28;20028;-73
2022/12/27 09:04:18;;;;;;;2.00;1.10;;;4.80;99.90;;;;;;5112598;28;20027;-72
2022/12/27 09:06:43;;;;;;;2.80;1.30;;;4.90;99.90;;;;;;5111533;28;20036;-73
2022/12/27 09:09:09;;;;;;;3.10;1.20;;;4.90;99.90;;;;;;5112565;28;20059;-73
2022/12/27 09:11:34;;;;;;;5.33;1.20;;;4.90;99.90;;;;;;5111842;28;20077;-72
2022/12/27 09:14:03;;;;;;;4.30;1.07;;;4.90;99.90;;;;;;5112781;28;20024;-75
2022/12/27 09:16:29;;;;;;;2.53;1.30;;;5.00;99.90;;;;;;5111650;28;20077;-72
2022/12/27 09:18:58;;;;;;;3.57;1.20;;;5.00;99.90;;;;;;5112913;28;20047;-72
2022/12/27 09:21:27;;;;;;;2.30;1.13;;;5.00;99.90;;;;;;5113418;28;20181;-72
2022/12/27 09:23:53;;;;;;;4.10;1.30;;;5.10;99.90;;;;;;5117020;28;20074;-72
2022/12/27 09:26:21;;;;;;;4.30;1.60;;;5.10;99.90;;;;;;5115169;28;20420;-72
2022/12/27 09:28:48;;;;;;;2.00;1.20;;;5.10;99.90;;;;;;5115724;28;20024;-73
2022/12/27 09:31:15;;;;;;;4.60;1.00;;;5.20;99.90;;;;;;5115193;28;20023;-73
2022/12/27 09:33:41;;;;;;;3.53;1.47;;;5.20;99.90;;;;;;5115735;28;20059;-72
2022/12/27 09:36:14;;;;;;;4.23;1.30;;;5.20;99.90;;;;;;5116473;28;20032;-72
2022/12/27 09:38:41;;;;;;;2.30;1.10;;;5.20;99.90;;;;;;5115627;28;20027;-72
2022/12/27 09:41:52;;;;;;;2.13;1.33;;;5.30;99.90;;;;;;5114991;28;20114;-73
2022/12/27 09:44:23;;;;;;;4.87;1.20;;;5.30;99.90;;;;;;5115030;28;20039;-72
2022/12/27 09:47:20;;;;;;;3.72;1.20;;;5.40;99.90;;;;;;5115598;28;20023;-72
2022/12/27 09:49:51;;;;;;;2.93;1.20;;;5.40;99.90;;;;;;5116684;28;20051;-72
2022/12/27 09:52:25;;;;;;;2.00;1.00;;;5.50;99.90;;;;;;5116223;28;20055;-73
2022/12/27 09:55:00;;;;;;;3.33;1.10;;;5.50;99.90;;;;;;5116696;28;20040;-72
2022/12/27 09:57:37;;;;;;;4.13;1.10;;;5.50;99.90;;;;;;5115795;28;20023;-73
2022/12/27 10:00:11;;;;;;;4.93;1.53;;;5.60;99.90;;;;;;5114625;28;20024;-78
2022/12/27 10:02:37;;;;;;;3.87;1.20;;;5.60;99.90;;;;;;5115163;28;20444;-74
2022/12/27 10:05:03;;;;;;;3.27;1.13;;;5.60;99.90;;;;;;5115068;28;20080;-72
2022/12/27 10:07:44;;;;;;;2.73;1.37;;;5.70;99.90;;;;;;5115041;28;20028;-72
2022/12/27 10:10:38;;;;;;;3.20;1.30;;;5.70;99.90;;;;;;5115933;28;20511;-73
2022/12/27 10:13:16;;;;;;;3.83;1.90;;;5.70;99.90;;;;;;5114549;28;20023;-78
2022/12/27 10:16:01;;;;;;;4.97;1.53;;;5.80;99.90;;;;;;5114994;28;20487;-73
2022/12/27 10:18:36;;;;;;;3.83;1.53;;;5.90;99.90;;;;;;5114200;28;20123;-72
2022/12/27 10:21:18;;;;;;;3.37;1.17;;;5.90;99.90;;;;;;5114851;28;20096;-72
2022/12/27 10:23:51;;;;;;;1.58;1.30;;;6.00;99.90;;;;;;5114869;28;20030;-72
2022/12/27 10:26:19;;;;;;;4.87;1.33;;;6.00;99.90;;;;;;5115212;28;20088;-72
2022/12/27 10:28:49;;;;;;;4.43;1.40;;;6.10;99.90;;;;;;5114676;28;20526;-73
2022/12/27 10:31:17;;;;;;;1.67;1.23;;;6.20;99.90;;;;;;5113943;28;20475;-73
2022/12/27 10:33:44;;;;;;;5.30;1.40;;;6.20;99.90;;;;;;5115823;28;20030;-72
2022/12/27 10:36:28;;;;;;;3.27;1.20;;;6.30;99.90;;;;;;5114202;28;20019;-73
2022/12/27 10:38:54;;;;;;;2.80;1.10;;;6.30;99.90;;;;;;5114540;28;20033;-73
2022/12/27 10:42:00;;;;;;;6.50;1.40;;;6.40;99.90;;;;;;5113892;28;20034;-73
2022/12/27 10:44:27;;;;;;;5.83;1.30;;;6.50;99.90;;;;;;5114040;28;20563;-72
2022/12/27 10:46:54;;;;;;;4.20;1.27;;;6.60;99.90;;;;;;5114469;28;20038;-73
2022/12/27 10:49:58;;;;;;;3.33;1.10;;;6.60;99.90;;;;;;5115370;28;20028;-73
2022/12/27 10:52:24;;;;;;;4.30;1.30;;;6.70;99.90;;;;;;5114925;28;20034;-73
2022/12/27 10:54:53;;;;;;;4.87;1.20;;;6.70;99.90;;;;;;5114116;28;20469;-72
2022/12/27 10:57:27;;;;;;;3.03;1.20;;;6.80;99.90;;;;;;5114907;28;20039;-73
2022/12/27 11:00:17;;;;;;;1.97;0.90;;;6.80;99.90;;;;;;5113971;28;20028;-73
2022/12/27 11:02:59;;;;;;;3.07;1.00;;;6.90;99.90;;;;;;5114128;28;20027;-73
2022/12/27 11:05:34;;;;;;;2.55;1.08;;;7.00;99.90;;;;;;5113174;28;20043;-73
2022/12/27 11:08:19;;;;;;;2.70;0.93;;;7.00;99.90;;;;;;5115248;28;20028;-72
2022/12/27 11:10:44;;;;;;;3.63;0.90;;;7.00;99.90;;;;;;5114078;28;20077;-72
2022/12/27 11:13:17;;;;;;;4.63;0.90;;;7.10;99.90;;;;;;5114813;28;20449;-73
2022/12/27 11:15:52;;;;;;;5.20;1.00;;;7.10;99.90;;;;;;5113930;28;20059;-73
2022/12/27 11:18:20;;;;;;;3.77;1.10;;;7.10;99.90;;;;;;5114732;28;20525;-73
2022/12/27 11:20:53;;;;;;;4.00;0.80;;;7.10;99.90;;;;;;5113868;28;20053;-73
2022/12/27 11:23:23;;;;;;;3.97;1.10;;;7.20;99.90;;;;;;5113250;28;20027;-73
2022/12/27 11:25:57;;;;;;;4.90;0.80;;;7.20;99.90;;;;;;5113428;28;20133;-73
2022/12/27 11:28:37;;;;;;;6.87;0.90;;;7.30;99.90;;;;;;5113048;28;20076;-73
2022/12/27 11:31:14;;;;;;;3.73;1.20;;;7.40;99.90;;;;;;5113544;28;20118;-72
2022/12/27 11:33:46;;;;;;;1.73;0.83;;;7.50;99.90;;;;;;5114770;28;20043;-73
2022/12/27 11:36:14;;;;;;;5.83;1.30;;;7.50;99.90;;;;;;5112931;28;20024;-73
2022/12/27 11:38:43;;;;;;;10.10;1.30;;;7.50;99.90;;;;;;5114890;28;20034;-72
2022/12/27 11:41:47;;;;;;;3.30;1.10;;;7.60;99.90;;;;;;5113182;28;20066;-77
2022/12/27 11:44:24;;;;;;;6.40;1.90;;;7.60;99.90;;;;;;5089971;28;20117;-73
2022/12/27 11:47:17;;;;;;;4.50;1.20;;;7.60;99.90;;;;;;5113227;28;20020;-72
2022/12/27 11:50:18;;;;;;;3.80;1.00;;;7.70;99.90;;;;;;5113271;28;20084;-72
2022/12/27 11:53:19;;;;;;;4.47;1.30;;;7.70;99.90;;;;;;5108574;28;20067;-72
2022/12/27 11:56:16;;;;;;;4.83;1.20;;;7.70;99.90;;;;;;5114754;28;20035;-72
2022/12/27 11:58:59;;;;;;;2.23;1.00;;;7.80;99.90;;;;;;5112960;28;20024;-72
2022/12/27 12:01:40;;;;;;;3.97;1.17;;;7.90;99.90;;;;;;5112371;28;20038;-73
2022/12/27 12:04:15;;;;;;;4.53;1.10;;;7.90;99.90;;;;;;5114007;28;20032;-72
2022/12/27 12:07:18;;;;;;;2.87;1.13;;;8.00;99.90;;;;;;5112940;28;20024;-72
2022/12/27 12:09:49;;;;;;;3.35;1.10;;;8.00;99.90;;;;;;5112704;28;20051;-72
2022/12/27 12:13:09;;;;;;;4.47;0.93;;;8.10;99.90;;;;;;5112246;28;20113;-73
2022/12/27 12:15:49;;;;;;;3.75;1.40;;;8.10;99.90;;;;;;5014101;28;20376;-72
2022/12/27 12:18:27;;;;;;;2.15;1.00;;;8.30;99.90;;;;;;5102920;28;20039;-73
2022/12/27 12:21:16;;;;;;;2.58;1.05;;;8.30;99.90;;;;;;5113799;28;20032;-73
2022/12/27 12:24:12;;;;;;;2.63;1.30;;;8.30;99.90;;;;;;5112590;28;20354;-73
2022/12/27 12:27:06;;;;;;;3.20;1.10;;;8.40;99.90;;;;;;5112539;28;20122;-73
2022/12/27 12:29:50;;;;;;;2.17;1.02;;;8.50;99.90;;;;;;5111882;28;20140;-73
2022/12/27 12:32:47;;;;;;;4.22;1.33;;;8.60;99.90;;;;;;5113139;28;20034;-73
2022/12/27 12:35:31;;;;;;;4.05;1.67;;;8.60;99.90;;;;;;5112116;28;20122;-77
2022/12/27 12:38:32;;;;;;;4.45;1.08;;;8.60;99.90;;;;;;5113501;28;20027;-73
2022/12/27 12:41:15;;;;;;;4.25;1.33;;;8.50;99.90;;;;;;5087127;28;20036;-73
2022/12/27 12:44:13;;;;;;;5.20;1.10;;;8.60;99.90;;;;;;5112336;28;20114;-72
2022/12/27 12:46:41;;;;;;;7.65;1.10;;;8.60;99.90;;;;;;5090143;28;20028;-73
2022/12/27 12:49:19;;;;;;;6.65;1.20;;;8.60;99.90;;;;;;5112033;28;20020;-72
2022/12/27 12:51:49;;;;;;;4.20;1.20;;;8.60;99.90;;;;;;5112055;28;20077;-73
2022/12/27 12:54:47;;;;;;;3.40;1.30;;;8.60;99.90;;;;;;5111494;28;20474;-73
2022/12/27 12:57:31;;;;;;;2.03;1.10;;;8.60;99.90;;;;;;5111713;28;20028;-73
2022/12/27 13:00:20;;;;;;;4.65;1.00;;;8.50;99.90;;;;;;5111964;28;20388;-73
2022/12/27 13:03:08;;;;;;;2.75;1.30;;;8.50;99.90;;;;;;5112173;28;20057;-73
2022/12/27 13:05:50;;;;;;;5.63;1.17;;;8.60;99.90;;;;;;5111357;28;20019;-73
2022/12/27 13:08:28;;;;;;;4.20;1.17;;;8.60;99.90;;;;;;5111443;28;20059;-74
2022/12/27 13:11:16;;;;;;;5.85;1.00;;;8.70;99.90;;;;;;5113198;28;20032;-73
2022/12/27 13:13:48;;;;;;;4.20;0.98;;;8.80;99.90;;;;;;5111986;28;20024;-73
2022/12/27 13:17:00;;;;;;;2.78;1.10;;;8.90;99.90;;;;;;5111799;28;20023;-72
2022/12/27 13:19:53;;;;;;;6.68;1.42;;;8.90;99.90;;;;;;5110918;28;20096;-73
2022/12/27 13:22:27;;;;;;;4.32;1.02;;;8.90;99.90;;;;;;5110999;28;20085;-73
2022/12/27 13:25:20;;;;;;;4.50;1.10;;;9.00;99.90;;;;;;5111422;28;20031;-72
2022/12/27 13:28:36;;;;;;;3.50;1.10;;;9.00;99.90;;;;;;5111874;28;20032;-73
2022/12/27 13:31:17;;;;;;;2.53;0.80;;;9.10;99.90;;;;;;5111843;28;20114;-73
2022/12/27 13:34:16;;;;;;;4.47;0.90;;;9.20;99.90;;;;;;5111767;28;20024;-73
2022/12/27 13:37:07;;;;;;;2.58;0.80;;;9.20;99.90;;;;;;5111721;28;20019;-73
2022/12/27 13:39:41;;;;;;;4.28;0.93;;;9.30;99.90;;;;;;5112517;28;20027;-73
2022/12/27 13:42:45;;;;;;;1.60;0.70;;;9.40;99.90;;;;;;5111664;28;20392;-73
2022/12/27 13:45:35;;;;;;;4.35;1.10;;;9.40;99.90;;;;;;5112797;28;20114;-73
2022/12/27 13:48:19;;;;;;;2.30;0.60;;;9.50;99.90;;;;;;5113092;28;20104;-72
2022/12/27 13:51:10;;;;;;;2.70;0.80;;;9.60;99.90;;;;;;5112703;28;20031;-73
2022/12/27 13:53:38;;;;;;;4.60;0.80;;;9.70;99.90;;;;;;5111262;28;20039;-73
2022/12/27 13:56:19;;;;;;;3.35;0.88;;;9.80;99.90;;;;;;5111227;28;20176;-73
2022/12/27 13:59:22;;;;;;;2.83;0.68;;;9.80;99.90;;;;;;5111575;28;20023;-73
2022/12/27 14:02:28;;;;;;;3.03;0.90;;;9.80;99.90;;;;;;5111187;28;20040;-73
2022/12/27 14:05:00;;;;;;;1.67;0.77;;;9.80;99.90;;;;;;5111359;28;20055;-73
2022/12/27 14:07:37;;;;;;;2.92;1.20;;;9.70;99.90;;;;;;5112970;28;20483;-73
2022/12/27 14:10:07;;;;;;;6.32;1.10;;;9.50;99.90;;;;;;5115154;28;20380;-73
2022/12/27 14:12:56;;;;;;;3.60;1.08;;;9.30;99.90;;;;;;5115740;28;20031;-73
2022/12/27 14:16:14;;;;;;;6.18;0.88;;;9.10;99.90;;;;;;5114454;28;20419;-74
2022/12/27 14:18:49;;;;;;;1.17;0.90;;;9.00;99.90;;;;;;5114239;28;20052;-74
2022/12/27 14:21:24;;;;;;;4.97;1.00;;;9.00;99.90;;;;;;5115715;28;20031;-74
2022/12/27 14:24:08;;;;;;;5.50;0.80;;;8.90;99.90;;;;;;5114708;28;20031;-74
2022/12/27 14:26:33;;;;;;;3.28;1.00;;;8.80;99.90;;;;;;5115321;28;20485;-75
2022/12/27 14:29:22;;;;;;;3.58;0.88;;;8.70;99.90;;;;;;5115916;28;20031;-74
2022/12/27 14:32:13;;;;;;;3.75;0.73;;;8.70;99.90;;;;;;5114856;28;20028;-74
2022/12/27 14:34:51;;;;;;;4.53;1.08;;;8.60;99.90;;;;;;5115282;28;20041;-74
2022/12/27 14:37:28;;;;;;;2.83;1.00;;;8.50;99.90;;;;;;5115987;28;20023;-74
2022/12/27 14:40:18;;;;;;;3.20;1.10;;;8.50;99.90;;;;;;5115444;28;20043;-74
2022/12/27 14:43:31;;;;;;;3.80;1.50;;;8.40;99.90;;;;;;5115347;28;20028;-74
2022/12/27 14:46:00;;;;;;;4.03;1.13;;;8.40;99.90;;;;;;5115445;28;20024;-74
2022/12/27 14:48:52;;;;;;;3.50;1.00;;;8.30;99.90;;;;;;5113878;28;20019;-74
2022/12/27 14:51:54;;;;;;;6.25;1.05;;;8.30;99.90;;;;;;5114411;28;20039;-74
2022/12/27 14:54:57;;;;;;;5.80;1.05;;;8.20;99.90;;;;;;5114209;28;20111;-74
2022/12/27 14:57:23;;;;;;;3.35;1.13;;;8.20;99.90;;;;;;5114673;28;20024;-74
2022/12/27 15:00:10;;;;;;;5.22;1.52;;;8.10;99.90;;;;;;5113681;28;20038;-74
2022/12/27 15:02:58;;;;;;;2.10;0.90;;;8.10;99.90;;;;;;5113706;28;20035;-74
2022/12/27 15:05:30;;;;;;;3.80;1.52;;;8.00;99.90;;;;;;5113664;28;20051;-74
2022/12/27 15:07:55;;;;;;;8.15;1.23;;;8.00;99.90;;;;;;5114011;28;20088;-74
2022/12/27 15:10:59;;;;;;;2.67;1.10;;;8.00;99.90;;;;;;5115223;28;20500;-74
2022/12/27 15:13:55;;;;;;;4.18;1.23;;;7.90;99.90;;;;;;5113366;28;20045;-74